createdAt,value
2018-11-03T00:00:38.177Z,100.0
2018-11-03T00:01:39.089Z,100.0
2018-11-03T00:02:40.113Z,100.0
2018-11-03T00:03:40.817Z,100.0
2018-11-03T00:04:41.832Z,100.0
2018-11-03T00:05:42.554Z,100.0
2018-11-03T00:06:43.256Z,100.0
2018-11-03T00:07:43.983Z,100.0
2018-11-03T00:08:44.716Z,100.0
2018-11-03T00:09:45.410Z,100.0
2018-11-03T00:10:46.194Z,100.0
2018-11-03T00:11:47.015Z,100.0
2018-11-03T00:12:47.717Z,100.0
2018-11-03T00:13:48.444Z,100.0
2018-11-03T00:14:49.514Z,100.0
2018-11-03T00:15:50.257Z,100.0
2018-11-03T00:16:50.988Z,100.0
2018-11-03T00:17:52.000Z,100.0
2018-11-03T00:18:52.880Z,100.0
2018-11-03T00:19:53.629Z,100.0
2018-11-03T00:20:54.335Z,100.0
2018-11-03T00:21:55.101Z,100.0
2018-11-03T00:22:55.816Z,100.0
2018-11-03T00:23:56.527Z,100.0
2018-11-03T00:24:57.257Z,100.0
2018-11-03T00:25:57.973Z,100.0
2018-11-03T00:26:58.761Z,100.0
2018-11-03T00:27:59.489Z,100.0
2018-11-03T00:29:00.530Z,100.0
2018-11-03T00:30:01.244Z,100.0
2018-11-03T00:31:02.019Z,100.0
2018-11-03T00:32:02.788Z,100.0
2018-11-03T00:33:03.786Z,100.0
2018-11-03T00:34:04.501Z,100.0
2018-11-03T00:35:05.214Z,100.0
2018-11-03T00:36:05.934Z,100.0
2018-11-03T00:37:06.651Z,100.0
2018-11-03T00:38:07.504Z,100.0
2018-11-03T00:39:08.236Z,100.0
2018-11-03T00:40:08.982Z,100.0
2018-11-03T00:41:09.693Z,100.0
2018-11-03T00:42:10.662Z,100.0
2018-11-03T00:43:11.499Z,100.0
2018-11-03T00:44:12.227Z,100.0
2018-11-03T00:45:12.973Z,100.0
2018-11-03T00:46:13.707Z,100.0
2018-11-03T00:47:14.401Z,100.0
2018-11-03T00:48:15.246Z,100.0
2018-11-03T00:49:15.936Z,100.0
2018-11-03T00:50:16.681Z,100.0
2018-11-03T00:51:17.436Z,100.0
2018-11-03T00:52:18.158Z,100.0
2018-11-03T00:53:18.964Z,100.0
2018-11-03T00:54:19.678Z,100.0
2018-11-03T00:55:20.404Z,100.0
2018-11-03T00:56:21.146Z,100.0
2018-11-03T00:57:21.849Z,100.0
2018-11-03T00:58:22.640Z,100.0
2018-11-03T00:59:23.366Z,100.0
2018-11-03T01:00:24.331Z,100.0
2018-11-03T01:01:25.058Z,100.0
2018-11-03T01:02:26.030Z,100.0
2018-11-03T01:03:26.793Z,100.0
2018-11-03T01:04:27.529Z,100.0
2018-11-03T01:05:28.241Z,100.0
2018-11-03T01:06:28.988Z,100.0
2018-11-03T01:07:29.707Z,100.0
2018-11-03T01:08:30.746Z,100.0
2018-11-03T01:09:31.452Z,100.0
2018-11-03T01:10:32.429Z,100.0
2018-11-03T01:11:33.164Z,100.0
2018-11-03T01:12:34.148Z,100.0
2018-11-03T01:13:35.006Z,100.0
2018-11-03T01:14:35.738Z,100.0
2018-11-03T01:15:36.496Z,100.0
2018-11-03T01:16:37.492Z,100.0
2018-11-03T01:17:38.199Z,100.0
2018-11-03T01:18:39.167Z,100.0
2018-11-03T01:19:39.853Z,100.0
2018-11-03T01:20:40.853Z,100.0
2018-11-03T01:21:41.557Z,100.0
2018-11-03T01:22:42.271Z,100.0
2018-11-03T01:23:43.147Z,100.0
2018-11-03T01:24:43.731Z,100.0
2018-11-03T01:25:44.739Z,100.0
2018-11-03T01:26:45.453Z,100.0
2018-11-03T01:27:46.555Z,100.0
2018-11-03T01:28:47.256Z,100.0
2018-11-03T01:29:48.238Z,100.0
2018-11-03T01:30:48.964Z,100.0
2018-11-03T01:31:49.771Z,100.0
2018-11-03T01:32:50.739Z,100.0
2018-11-03T01:33:51.759Z,100.0
2018-11-03T01:34:52.499Z,100.0
2018-11-03T01:35:53.473Z,100.0
2018-11-03T01:36:54.177Z,100.0
2018-11-03T01:37:55.180Z,100.0
2018-11-03T01:38:55.937Z,100.0
2018-11-03T01:39:57.013Z,100.0
2018-11-03T01:40:57.719Z,100.0
2018-11-03T01:41:58.437Z,100.0
2018-11-03T01:42:59.160Z,100.0
2018-11-03T01:43:59.944Z,100.0
2018-11-03T01:45:00.957Z,100.0
2018-11-03T01:46:01.670Z,100.0
2018-11-03T01:47:02.409Z,100.0
2018-11-03T01:48:03.386Z,100.0
2018-11-03T01:49:04.097Z,100.0
2018-11-03T01:50:04.788Z,100.0
2018-11-03T01:51:05.846Z,100.0
2018-11-03T01:52:06.550Z,100.0
2018-11-03T01:53:07.312Z,100.0
2018-11-03T01:54:08.027Z,100.0
2018-11-03T01:55:08.741Z,100.0
2018-11-03T01:56:09.517Z,100.0
2018-11-03T01:57:10.224Z,100.0
2018-11-03T01:58:10.990Z,100.0
2018-11-03T01:59:11.949Z,100.0
2018-11-03T02:00:12.671Z,100.0
2018-11-03T02:01:13.375Z,100.0
2018-11-03T02:02:14.100Z,100.0
2018-11-03T02:03:14.899Z,100.0
2018-11-03T02:04:15.620Z,100.0
2018-11-03T02:05:16.334Z,100.0
2018-11-03T02:06:17.344Z,100.0
2018-11-03T02:07:18.070Z,100.0
2018-11-03T02:08:18.777Z,100.0
2018-11-03T02:09:19.509Z,100.0
2018-11-03T02:10:20.220Z,100.0
2018-11-03T02:11:20.935Z,100.0
2018-11-03T02:12:21.948Z,100.0
2018-11-03T02:13:22.708Z,100.0
2018-11-03T02:14:23.435Z,100.0
2018-11-03T02:15:24.138Z,100.0
2018-11-03T02:16:24.849Z,100.0
2018-11-03T02:17:25.607Z,100.0
2018-11-03T02:18:26.587Z,100.0
2018-11-03T02:19:27.295Z,100.0
2018-11-03T02:20:28.010Z,100.0
2018-11-03T02:21:29.003Z,100.0
2018-11-03T02:22:29.709Z,100.0
2018-11-03T02:23:30.427Z,100.0
2018-11-03T02:24:31.125Z,100.0
2018-11-03T02:25:31.853Z,100.0
2018-11-03T02:26:32.565Z,100.0
2018-11-03T02:27:33.350Z,100.0
2018-11-03T02:28:34.582Z,100.0
2018-11-03T02:29:35.276Z,100.0
2018-11-03T02:30:36.008Z,100.0
2018-11-03T02:31:36.989Z,100.0
2018-11-03T02:32:37.730Z,100.0
2018-11-03T02:33:38.459Z,100.0
2018-11-03T02:34:39.264Z,100.0
2018-11-03T02:35:40.082Z,100.0
2018-11-03T02:36:40.807Z,100.0
2018-11-03T02:37:42.059Z,100.0
2018-11-03T02:38:43.270Z,100.0
2018-11-03T02:39:43.994Z,100.0
2018-11-03T02:40:44.939Z,100.0
2018-11-03T02:41:45.904Z,100.0
2018-11-03T02:42:47.077Z,100.0
2018-11-03T02:43:47.842Z,100.0
2018-11-03T02:44:48.600Z,100.0
2018-11-03T02:45:49.632Z,100.0
2018-11-03T02:46:50.354Z,100.0
2018-11-03T02:47:51.341Z,100.0
2018-11-03T02:48:52.069Z,100.0
2018-11-03T02:49:53.032Z,100.0
2018-11-03T02:50:53.940Z,100.0
2018-11-03T02:51:55.161Z,100.0
2018-11-03T02:52:55.990Z,100.0
2018-11-03T02:53:57.237Z,100.0
2018-11-03T02:54:57.948Z,100.0
2018-11-03T02:55:59.061Z,100.0
2018-11-03T02:56:59.772Z,100.0
2018-11-03T02:58:00.747Z,100.0
2018-11-03T02:59:01.485Z,100.0
2018-11-03T03:00:03.005Z,100.0
2018-11-03T03:01:04.254Z,100.0
2018-11-03T03:02:06.116Z,100.0
2018-11-03T03:03:07.593Z,100.0
2018-11-03T03:04:08.386Z,100.0
2018-11-03T03:05:09.346Z,100.0
2018-11-03T03:06:10.874Z,100.0
2018-11-03T03:07:11.821Z,100.0
2018-11-03T03:08:13.014Z,100.0
2018-11-03T03:09:13.832Z,100.0
2018-11-03T03:10:15.069Z,100.0
2018-11-03T03:11:15.904Z,100.0
2018-11-03T03:12:16.857Z,100.0
2018-11-03T03:13:17.740Z,100.0
2018-11-03T03:14:18.973Z,100.0
2018-11-03T03:15:20.348Z,100.0
2018-11-03T03:16:21.686Z,100.0
2018-11-03T03:17:23.270Z,100.0
2018-11-03T03:18:25.067Z,100.0
2018-11-03T03:19:26.358Z,100.0
2018-11-03T03:20:27.562Z,100.0
2018-11-03T03:21:28.857Z,100.0
2018-11-03T03:22:29.991Z,100.0
2018-11-03T03:23:31.322Z,100.0
2018-11-03T03:24:32.862Z,100.0
2018-11-03T03:25:34.484Z,100.0
2018-11-03T03:26:36.309Z,100.0
2018-11-03T03:27:38.054Z,100.0
2018-11-03T03:28:39.089Z,100.0
2018-11-03T03:29:39.998Z,100.0
2018-11-03T03:30:41.322Z,100.0
2018-11-03T03:31:42.263Z,100.0
2018-11-03T03:32:43.491Z,100.0
2018-11-03T03:33:44.715Z,100.0
2018-11-03T03:34:45.717Z,100.0
2018-11-03T03:35:49.668Z,100.0
2018-11-03T03:36:49.476Z,100.0
2018-11-03T03:37:51.081Z,100.0
2018-11-03T03:38:52.585Z,100.0
2018-11-03T03:39:53.672Z,100.0
2018-11-03T03:40:55.480Z,100.0
2018-11-03T03:41:56.865Z,100.0
2018-11-03T03:42:58.843Z,100.0
2018-11-03T03:45:02.612Z,100.0
2018-11-03T03:46:04.198Z,100.0
2018-11-03T03:47:05.749Z,100.0
2018-11-03T03:48:07.456Z,100.0
2018-11-03T03:49:09.125Z,100.0
2018-11-03T03:50:11.319Z,100.0
2018-11-03T03:51:13.968Z,100.0
2018-11-03T03:52:15.852Z,100.0
2018-11-03T03:53:17.670Z,100.0
2018-11-03T03:54:19.905Z,100.0
2018-11-03T03:55:21.916Z,100.0
2018-11-03T03:56:23.686Z,100.0
2018-11-03T03:57:25.130Z,100.0
2018-11-03T03:58:26.289Z,100.0
2018-11-03T03:59:27.375Z,100.0
2018-11-03T04:00:28.304Z,100.0
2018-11-03T04:01:29.270Z,100.0
2018-11-03T04:02:30.224Z,100.0
2018-11-03T04:03:31.194Z,100.0
2018-11-03T04:04:32.567Z,100.0
2018-11-03T04:05:33.419Z,100.0
2018-11-03T04:06:34.357Z,100.0
2018-11-03T04:07:35.339Z,100.0
2018-11-03T04:08:36.290Z,100.0
2018-11-03T04:09:37.125Z,100.0
2018-11-03T04:10:39.010Z,100.0
2018-11-03T04:11:41.028Z,100.0
2018-11-03T04:12:42.265Z,100.0
2018-11-03T04:13:43.524Z,100.0
2018-11-03T04:14:44.423Z,100.0
2018-11-03T04:15:45.382Z,100.0
2018-11-03T04:16:46.358Z,100.0
2018-11-03T04:17:47.319Z,100.0
2018-11-03T04:18:48.381Z,100.0
2018-11-03T04:19:49.222Z,100.0
2018-11-03T04:20:50.573Z,100.0
2018-11-03T04:21:51.348Z,100.0
2018-11-03T04:22:52.393Z,100.0
2018-11-03T04:23:53.313Z,100.0
2018-11-03T04:24:54.382Z,100.0
2018-11-03T04:25:55.249Z,100.0
2018-11-03T04:26:56.196Z,100.0
2018-11-03T04:27:57.075Z,100.0
2018-11-03T04:28:58.102Z,100.0
2018-11-03T04:29:59.381Z,100.0
2018-11-03T04:31:00.635Z,100.0
2018-11-03T04:32:01.489Z,100.0
2018-11-03T04:33:02.320Z,100.0
2018-11-03T04:34:03.560Z,100.0
2018-11-03T04:35:04.398Z,100.0
2018-11-03T04:36:06.056Z,100.0
2018-11-03T04:37:06.901Z,100.0
2018-11-03T04:38:07.774Z,100.0
2018-11-03T04:39:08.753Z,100.0
2018-11-03T04:40:09.943Z,100.0
2018-11-03T04:41:10.875Z,100.0
2018-11-03T04:42:11.780Z,100.0
2018-11-03T04:43:12.731Z,100.0
2018-11-03T04:44:13.940Z,100.0
2018-11-03T04:45:14.856Z,100.0
2018-11-03T04:46:16.027Z,100.0
2018-11-03T04:47:16.883Z,100.0
2018-11-03T04:48:18.242Z,100.0
2018-11-03T04:49:19.453Z,100.0
2018-11-03T04:50:20.294Z,100.0
2018-11-03T04:51:21.516Z,100.0
2018-11-03T04:52:22.342Z,100.0
2018-11-03T04:53:23.332Z,100.0
2018-11-03T04:54:24.554Z,100.0
2018-11-03T04:55:25.723Z,100.0
2018-11-03T04:56:26.914Z,100.0
2018-11-03T04:57:27.761Z,100.0
2018-11-03T04:58:28.714Z,100.0
2018-11-03T04:59:29.946Z,100.0
2018-11-03T05:00:30.791Z,100.0
2018-11-03T05:01:31.746Z,100.0
2018-11-03T05:02:32.936Z,100.0
2018-11-03T05:03:33.782Z,100.0
2018-11-03T05:04:34.985Z,100.0
2018-11-03T05:05:35.823Z,100.0
2018-11-03T05:06:37.455Z,100.0
2018-11-03T05:07:38.303Z,100.0
2018-11-03T05:08:39.511Z,100.0
2018-11-03T05:09:40.361Z,100.0
2018-11-03T05:10:41.906Z,100.0
2018-11-03T05:11:42.806Z,100.0
2018-11-03T05:12:43.746Z,100.0
2018-11-03T05:13:45.010Z,100.0
2018-11-03T05:14:45.861Z,100.0
2018-11-03T05:15:47.406Z,100.0
2018-11-03T05:16:48.242Z,100.0
2018-11-03T05:17:50.099Z,100.0
2018-11-03T05:18:52.026Z,100.0
2018-11-03T05:19:54.478Z,100.0
2018-11-03T05:20:56.541Z,100.0
2018-11-03T05:21:58.614Z,100.0
2018-11-03T05:23:00.716Z,100.0
2018-11-03T05:24:02.786Z,100.0
2018-11-03T05:25:05.400Z,100.0
2018-11-03T05:26:07.374Z,100.0
2018-11-03T05:27:08.511Z,100.0
2018-11-03T05:28:09.295Z,100.0
2018-11-03T05:29:10.469Z,100.0
2018-11-03T05:30:11.404Z,100.0
2018-11-03T05:31:12.413Z,100.0
2018-11-03T05:32:13.485Z,100.0
2018-11-03T05:33:14.321Z,100.0
2018-11-03T05:34:15.510Z,100.0
2018-11-03T05:35:16.387Z,100.0
2018-11-03T05:36:17.278Z,100.0
2018-11-03T05:37:18.543Z,100.0
2018-11-03T05:38:19.381Z,100.0
2018-11-03T05:39:20.239Z,100.0
2018-11-03T05:40:21.220Z,100.0
2018-11-03T05:41:22.498Z,100.0
2018-11-03T05:42:23.685Z,100.0
2018-11-03T05:43:24.540Z,100.0
2018-11-03T05:44:25.711Z,100.0
2018-11-03T05:45:27.019Z,100.0
2018-11-03T05:46:27.929Z,100.0
2018-11-03T05:47:28.836Z,100.0
2018-11-03T05:48:30.059Z,100.0
2018-11-03T05:49:30.902Z,100.0
2018-11-03T05:50:32.114Z,100.0
2018-11-03T05:51:32.959Z,100.0
2018-11-03T05:52:33.892Z,100.0
2018-11-03T05:53:34.749Z,100.0
2018-11-03T05:54:35.975Z,100.0
2018-11-03T05:55:36.753Z,100.0
2018-11-03T05:56:37.935Z,100.0
2018-11-03T05:57:38.888Z,100.0
2018-11-03T05:58:40.133Z,100.0
2018-11-03T05:59:40.971Z,100.0
2018-11-03T06:00:41.823Z,100.0
2018-11-03T06:01:43.065Z,100.0
2018-11-03T06:02:44.016Z,100.0
2018-11-03T06:03:44.843Z,100.0
2018-11-03T06:04:45.715Z,100.0
2018-11-03T06:05:46.963Z,100.0
2018-11-03T06:06:47.802Z,100.0
2018-11-03T06:07:48.773Z,100.0
2018-11-03T06:08:50.073Z,100.0
2018-11-03T06:09:50.829Z,100.0
2018-11-03T06:10:52.080Z,100.0
2018-11-03T06:11:52.940Z,100.0
2018-11-03T06:12:53.874Z,100.0
2018-11-03T06:13:54.782Z,100.0
2018-11-03T06:14:56.021Z,100.0
2018-11-03T06:15:56.857Z,100.0
2018-11-03T06:16:58.071Z,100.0
2018-11-03T06:17:59.036Z,100.0
2018-11-03T06:19:00.323Z,100.0
2018-11-03T06:20:01.265Z,100.0
2018-11-03T06:21:02.465Z,100.0
2018-11-03T06:22:03.307Z,100.0
2018-11-03T06:23:04.704Z,100.0
2018-11-03T06:24:05.806Z,100.0
2018-11-03T06:25:07.009Z,100.0
2018-11-03T06:26:07.857Z,100.0
2018-11-03T06:27:09.073Z,100.0
2018-11-03T06:28:09.950Z,100.0
2018-11-03T06:29:10.873Z,100.0
2018-11-03T06:30:12.426Z,100.0
2018-11-03T06:31:13.267Z,100.0
2018-11-03T06:32:14.494Z,100.0
2018-11-03T06:33:15.316Z,100.0
2018-11-03T06:34:16.906Z,100.0
2018-11-03T06:35:17.936Z,100.0
2018-11-03T06:36:19.072Z,100.0
2018-11-03T06:37:19.926Z,100.0
2018-11-03T06:38:20.763Z,100.0
2018-11-03T06:39:21.959Z,100.0
2018-11-03T06:40:23.379Z,100.0
2018-11-03T06:41:24.572Z,100.0
2018-11-03T06:42:25.422Z,100.0
2018-11-03T06:43:26.252Z,100.0
2018-11-03T06:44:27.305Z,100.0
2018-11-03T06:45:28.584Z,100.0
2018-11-03T06:46:29.485Z,100.0
2018-11-03T06:47:30.381Z,100.0
2018-11-03T06:48:31.535Z,100.0
2018-11-03T06:49:32.393Z,100.0
2018-11-03T06:50:34.058Z,100.0
2018-11-03T06:51:35.010Z,100.0
2018-11-03T06:52:35.889Z,100.0
2018-11-03T06:53:36.739Z,100.0
2018-11-03T06:54:37.980Z,100.0
2018-11-03T06:55:38.929Z,100.0
2018-11-03T06:56:39.774Z,100.0
2018-11-03T06:57:40.980Z,100.0
2018-11-03T06:58:41.833Z,100.0
2018-11-03T06:59:43.064Z,100.0
2018-11-03T07:00:44.023Z,100.0
2018-11-03T07:01:44.857Z,100.0
2018-11-03T07:02:45.748Z,100.0
2018-11-03T07:03:46.965Z,100.0
2018-11-03T07:04:47.813Z,100.0
2018-11-03T07:05:49.118Z,100.0
2018-11-03T07:06:50.041Z,100.0
2018-11-03T07:07:50.835Z,100.0
2018-11-03T07:08:52.075Z,100.0
2018-11-03T07:09:52.954Z,100.0
2018-11-03T07:10:53.897Z,100.0
2018-11-03T07:11:54.827Z,100.0
2018-11-03T07:12:56.172Z,100.0
2018-11-03T07:13:56.920Z,100.0
2018-11-03T07:14:57.838Z,100.0
2018-11-03T07:15:58.829Z,100.0
2018-11-03T07:16:59.829Z,100.0
2018-11-03T07:18:00.781Z,100.0
2018-11-03T07:19:01.972Z,100.0
2018-11-03T07:20:02.822Z,100.0
2018-11-03T07:21:04.045Z,100.0
2018-11-03T07:22:04.998Z,100.0
2018-11-03T07:23:05.886Z,100.0
2018-11-03T07:24:06.781Z,100.0
2018-11-03T07:25:07.984Z,100.0
2018-11-03T07:26:08.837Z,100.0
2018-11-03T07:27:09.792Z,100.0
2018-11-03T07:28:10.766Z,100.0
2018-11-03T07:29:12.048Z,100.0
2018-11-03T07:30:12.899Z,100.0
2018-11-03T07:31:14.457Z,100.0
2018-11-03T07:32:15.303Z,100.0
2018-11-03T07:33:16.953Z,100.0
2018-11-03T07:34:17.816Z,100.0
2018-11-03T07:35:18.728Z,100.0
2018-11-03T07:36:20.021Z,100.0
2018-11-03T07:37:20.979Z,100.0
2018-11-03T07:38:21.951Z,100.0
2018-11-03T07:39:22.808Z,100.0
2018-11-03T07:40:23.766Z,100.0
2018-11-03T07:41:24.990Z,100.0
2018-11-03T07:42:25.842Z,100.0
2018-11-03T07:43:27.063Z,100.0
2018-11-03T07:44:27.917Z,100.0
2018-11-03T07:45:28.864Z,100.0
2018-11-03T07:46:29.741Z,100.0
2018-11-03T07:47:30.997Z,100.0
2018-11-03T07:48:32.302Z,100.0
2018-11-03T07:49:33.494Z,100.0
2018-11-03T07:50:34.333Z,100.0
2018-11-03T07:51:35.541Z,100.0
2018-11-03T07:52:36.416Z,100.0
2018-11-03T07:53:37.383Z,100.0
2018-11-03T07:54:38.257Z,100.0
2018-11-03T07:55:39.481Z,100.0
2018-11-03T07:56:40.753Z,100.0
2018-11-03T07:57:41.966Z,100.0
2018-11-03T07:58:42.834Z,100.0
2018-11-03T07:59:44.070Z,100.0
2018-11-03T08:00:45.108Z,100.0
2018-11-03T08:01:46.214Z,100.0
2018-11-03T08:02:47.415Z,100.0
2018-11-03T08:03:48.291Z,100.0
2018-11-03T08:04:49.524Z,100.0
2018-11-03T08:05:50.489Z,100.0
2018-11-03T08:06:51.471Z,100.0
2018-11-03T08:07:52.326Z,100.0
2018-11-03T08:08:53.596Z,100.0
2018-11-03T08:09:54.410Z,100.0
2018-11-03T08:10:55.726Z,100.0
2018-11-03T08:11:57.079Z,100.0
2018-11-03T08:12:57.942Z,100.0
2018-11-03T08:13:58.775Z,100.0
2018-11-03T08:14:59.852Z,100.0
2018-11-03T08:16:00.975Z,100.0
2018-11-03T08:17:01.832Z,100.0
2018-11-03T08:18:02.934Z,100.0
2018-11-03T08:19:03.747Z,100.0
2018-11-03T08:20:04.818Z,100.0
2018-11-03T08:21:05.959Z,100.0
2018-11-03T08:23:08.767Z,100.0
2018-11-03T08:24:09.978Z,100.0
2018-11-03T08:25:10.805Z,100.0
2018-11-03T08:26:11.825Z,100.0
2018-11-03T08:27:12.924Z,100.0
2018-11-03T08:28:13.748Z,100.0
2018-11-03T08:29:14.946Z,100.0
2018-11-03T08:30:15.731Z,100.0
2018-11-03T08:31:16.541Z,100.0
2018-11-03T08:32:17.310Z,100.0
2018-11-03T08:33:18.415Z,100.0
2018-11-03T08:34:19.311Z,100.0
2018-11-03T08:35:20.416Z,100.0
2018-11-03T08:36:21.227Z,100.0
2018-11-03T08:37:22.047Z,100.0
2018-11-03T08:38:22.867Z,100.0
2018-11-03T08:39:23.813Z,100.0
2018-11-03T08:40:25.046Z,100.0
2018-11-03T08:41:25.876Z,100.0
2018-11-03T08:42:26.756Z,100.0
2018-11-03T08:43:28.450Z,100.0
2018-11-03T08:44:29.524Z,100.0
2018-11-03T08:45:31.247Z,100.0
2018-11-03T08:46:32.881Z,100.0
2018-11-03T08:47:34.790Z,100.0
2018-11-03T08:48:36.874Z,100.0
2018-11-03T08:49:38.886Z,100.0
2018-11-03T08:50:41.352Z,100.0
2018-11-03T08:51:43.786Z,100.0
2018-11-03T08:52:45.860Z,100.0
2018-11-03T08:53:47.926Z,100.0
2018-11-03T08:54:50.058Z,100.0
2018-11-03T08:55:52.051Z,100.0
2018-11-03T08:56:54.551Z,100.0
2018-11-03T08:57:56.482Z,100.0
2018-11-03T08:58:57.796Z,100.0
2018-11-03T08:59:59.997Z,100.0
2018-11-03T09:01:01.892Z,100.0
2018-11-03T09:02:04.338Z,100.0
2018-11-03T09:03:06.490Z,100.0
2018-11-03T09:04:07.825Z,100.0
2018-11-03T09:05:10.480Z,100.0
2018-11-03T09:06:12.380Z,100.0
2018-11-03T09:07:14.925Z,100.0
2018-11-03T09:08:16.200Z,100.0
2018-11-03T09:09:17.657Z,100.0
2018-11-03T09:10:19.008Z,100.0
2018-11-03T09:11:19.864Z,100.0
2018-11-03T09:12:21.479Z,100.0
2018-11-03T09:13:22.387Z,100.0
2018-11-03T09:14:23.321Z,100.0
2018-11-03T09:15:24.504Z,100.0
2018-11-03T09:16:25.331Z,100.0
2018-11-03T09:17:26.927Z,100.0
2018-11-03T09:18:27.825Z,100.0
2018-11-03T09:19:29.047Z,100.0
2018-11-03T09:20:30.781Z,100.0
2018-11-03T09:21:32.842Z,100.0
2018-11-03T09:22:35.176Z,100.0
2018-11-03T09:23:37.483Z,100.0
2018-11-03T09:24:39.468Z,100.0
2018-11-03T09:25:41.480Z,100.0
2018-11-03T09:26:43.442Z,100.0
2018-11-03T09:27:45.441Z,100.0
2018-11-03T09:28:47.956Z,100.0
2018-11-03T09:29:49.853Z,100.0
2018-11-03T09:30:51.827Z,100.0
2018-11-03T09:31:53.967Z,100.0
2018-11-03T09:32:56.451Z,100.0
2018-11-03T09:33:58.362Z,100.0
2018-11-03T09:35:00.366Z,100.0
2018-11-03T09:36:02.334Z,100.0
2018-11-03T09:37:03.461Z,100.0
2018-11-03T09:38:04.433Z,100.0
2018-11-03T09:39:05.296Z,100.0
2018-11-03T09:40:06.028Z,100.0
2018-11-03T09:41:07.699Z,100.0
2018-11-03T09:42:09.031Z,100.0
2018-11-03T09:43:09.998Z,100.0
2018-11-03T09:44:10.959Z,100.0
2018-11-03T09:45:12.144Z,100.0
2018-11-03T09:46:13.790Z,100.0
2018-11-03T09:47:14.940Z,100.0
2018-11-03T09:48:16.097Z,100.0
2018-11-03T09:49:16.876Z,100.0
2018-11-03T09:50:18.104Z,100.0
2018-11-03T09:51:19.274Z,100.0
2018-11-03T09:52:19.959Z,100.0
2018-11-03T09:53:20.797Z,100.0
2018-11-03T09:54:22.046Z,100.0
2018-11-03T09:55:23.325Z,100.0
2018-11-03T09:56:25.124Z,100.0
2018-11-03T09:57:26.569Z,100.0
2018-11-03T09:58:27.849Z,100.0
2018-11-03T09:59:29.277Z,100.0
2018-11-03T10:00:31.389Z,100.0
2018-11-03T10:01:33.022Z,100.0
2018-11-03T10:02:33.795Z,100.0
2018-11-03T10:03:34.915Z,100.0
2018-11-03T10:04:35.723Z,100.0
2018-11-03T10:05:36.963Z,100.0
2018-11-03T10:06:39.484Z,100.0
2018-11-03T10:07:41.196Z,100.0
2018-11-03T10:08:42.650Z,100.0
2018-11-03T10:09:44.004Z,100.0
2018-11-03T10:10:44.842Z,100.0
2018-11-03T10:11:46.003Z,100.0
2018-11-03T10:12:46.832Z,100.0
2018-11-03T10:13:47.961Z,100.0
2018-11-03T10:14:48.812Z,100.0
2018-11-03T10:15:49.963Z,100.0
2018-11-03T10:16:51.037Z,100.0
2018-11-03T10:17:51.907Z,100.0
2018-11-03T10:18:53.034Z,100.0
2018-11-03T10:19:53.882Z,100.0
2018-11-03T10:20:54.986Z,100.0
2018-11-03T10:21:55.766Z,100.0
2018-11-03T10:22:56.909Z,100.0
2018-11-03T10:23:58.038Z,100.0
2018-11-03T10:24:58.923Z,100.0
2018-11-03T10:26:00.015Z,100.0
2018-11-03T10:27:00.832Z,100.0
2018-11-03T10:28:02.033Z,100.0
2018-11-03T10:29:02.945Z,100.0
2018-11-03T10:30:03.805Z,100.0
2018-11-03T10:31:05.015Z,100.0
2018-11-03T10:32:05.865Z,100.0
2018-11-03T10:33:07.480Z,100.0
2018-11-03T10:34:08.324Z,100.0
2018-11-03T10:35:09.946Z,100.0
2018-11-03T10:36:11.184Z,100.0
2018-11-03T10:37:12.430Z,100.0
2018-11-03T10:38:13.275Z,100.0
2018-11-03T10:39:14.213Z,100.0
2018-11-03T10:40:15.450Z,100.0
2018-11-03T10:41:16.278Z,100.0
2018-11-03T10:42:17.501Z,100.0
2018-11-03T10:43:18.318Z,100.0
2018-11-03T10:44:19.384Z,100.0
2018-11-03T10:45:20.246Z,100.0
2018-11-03T10:46:21.591Z,100.0
2018-11-03T10:47:22.339Z,100.0
2018-11-03T10:48:23.563Z,100.0
2018-11-03T10:49:25.265Z,100.0
2018-11-03T10:50:26.347Z,100.0
2018-11-03T10:51:27.491Z,100.0
2018-11-03T10:52:28.281Z,100.0
2018-11-03T10:53:29.393Z,100.0
2018-11-03T10:54:30.218Z,100.0
2018-11-03T10:55:30.970Z,100.0
2018-11-03T10:56:31.923Z,100.0
2018-11-03T10:57:33.001Z,100.0
2018-11-03T10:58:34.484Z,100.0
2018-11-03T10:59:35.489Z,100.0
2018-11-03T11:00:36.910Z,100.0
2018-11-03T11:01:38.647Z,100.0
2018-11-03T11:02:39.840Z,100.0
2018-11-03T11:03:41.637Z,100.0
2018-11-03T11:04:43.388Z,100.0
2018-11-03T11:05:45.037Z,100.0
2018-11-03T11:06:46.536Z,100.0
2018-11-03T11:07:48.177Z,100.0
2018-11-03T11:08:49.591Z,100.0
2018-11-03T11:09:50.553Z,100.0
2018-11-03T11:10:51.398Z,100.0
2018-11-03T11:11:52.214Z,100.0
2018-11-03T11:12:52.994Z,100.0
2018-11-03T11:13:53.780Z,100.0
2018-11-03T11:14:54.942Z,100.0
2018-11-03T11:15:56.258Z,100.0
2018-11-03T11:16:57.597Z,100.0
2018-11-03T11:17:58.364Z,100.0
2018-11-03T11:18:59.598Z,100.0
2018-11-03T11:20:00.468Z,100.0
2018-11-03T11:21:01.285Z,100.0
2018-11-03T11:22:02.569Z,100.0
2018-11-03T11:23:03.874Z,100.0
2018-11-03T11:24:04.877Z,100.0
2018-11-03T11:25:06.224Z,100.0
2018-11-03T11:26:06.880Z,100.0
2018-11-03T11:27:07.870Z,100.0
2018-11-03T11:28:08.719Z,100.0
2018-11-03T11:29:09.759Z,100.0
2018-11-03T11:30:10.879Z,100.0
2018-11-03T11:32:13.205Z,100.0
2018-11-03T11:33:14.439Z,100.0
2018-11-03T11:34:15.296Z,100.0
2018-11-03T11:35:16.496Z,100.0
2018-11-03T11:36:17.708Z,100.0
2018-11-03T11:37:19.423Z,100.0
2018-11-03T11:38:20.519Z,100.0
2018-11-03T11:39:22.231Z,100.0
2018-11-03T11:40:23.506Z,100.0
2018-11-03T11:41:24.711Z,100.0
2018-11-03T11:42:27.039Z,100.0
2018-11-03T11:43:28.928Z,100.0
2018-11-03T11:44:30.235Z,100.0
2018-11-03T11:45:32.410Z,99.6
2018-11-03T11:46:34.355Z,100.0
2018-11-03T11:47:36.591Z,99.9
2018-11-03T11:48:38.589Z,100.0
2018-11-03T11:49:40.678Z,100.0
2018-11-03T11:50:42.645Z,100.0
2018-11-03T11:51:44.057Z,100.0
2018-11-03T11:52:44.935Z,100.0
2018-11-03T11:53:46.036Z,99.4
2018-11-03T11:54:46.855Z,99.7
2018-11-03T11:55:47.972Z,100.0
2018-11-03T11:56:48.767Z,100.0
2018-11-03T11:57:49.821Z,99.0
2018-11-03T11:58:51.045Z,99.1
2018-11-03T11:59:51.847Z,99.0
2018-11-03T12:00:52.951Z,98.3
2018-11-03T12:01:53.783Z,98.5
2018-11-03T12:02:54.924Z,97.7
2018-11-03T12:03:55.776Z,98.5
2018-11-03T12:04:56.877Z,99.5
2018-11-03T12:05:58.020Z,99.0
2018-11-03T12:06:59.446Z,100.0
2018-11-03T12:08:00.249Z,99.8
2018-11-03T12:09:01.386Z,92.2
2018-11-03T12:10:02.554Z,91.1
2018-11-03T12:11:03.374Z,92.7
2018-11-03T12:12:04.370Z,96.1
2018-11-03T12:13:05.513Z,95.4
2018-11-03T12:14:07.469Z,91.9
2018-11-03T12:15:09.184Z,94.2
2018-11-03T12:16:10.876Z,96.9
2018-11-03T12:17:12.351Z,98.8
2018-11-03T12:18:14.201Z,99.2
2018-11-03T12:19:15.855Z,96.8
2018-11-03T12:20:17.771Z,94.7
2018-11-03T12:21:18.905Z,93.0
2018-11-03T12:22:20.007Z,92.6
2018-11-03T12:23:20.792Z,94.0
2018-11-03T12:24:21.911Z,94.3
2018-11-03T12:25:22.762Z,93.8
2018-11-03T12:26:23.911Z,91.8
2018-11-03T12:27:25.016Z,92.6
2018-11-03T12:28:25.798Z,92.4
2018-11-03T12:29:26.905Z,92.9
2018-11-03T12:30:28.020Z,94.6
2018-11-03T12:31:28.916Z,95.2
2018-11-03T12:32:30.018Z,94.9
2018-11-03T12:33:30.797Z,96.4
2018-11-03T12:34:31.905Z,97.3
2018-11-03T12:35:32.780Z,97.4
2018-11-03T12:36:33.940Z,94.6
2018-11-03T12:37:34.783Z,91.2
2018-11-03T12:38:36.303Z,89.5
2018-11-03T12:39:37.464Z,90.5
2018-11-03T12:40:38.294Z,91.7
2018-11-03T12:41:39.327Z,90.8
2018-11-03T12:42:40.523Z,89.9
2018-11-03T12:43:41.311Z,88.7
2018-11-03T12:44:42.399Z,88.9
2018-11-03T12:45:43.517Z,90.8
2018-11-03T12:46:44.306Z,92.2
2018-11-03T12:47:45.469Z,90.2
2018-11-03T12:48:46.369Z,87.7
2018-11-03T12:49:47.440Z,87.8
2018-11-03T12:50:48.548Z,90.2
2018-11-03T12:51:49.333Z,90.8
2018-11-03T12:52:50.496Z,91.1
2018-11-03T12:53:51.358Z,92.2
2018-11-03T12:54:52.436Z,92.1
2018-11-03T12:55:53.585Z,90.7
2018-11-03T12:56:54.341Z,90.8
2018-11-03T12:57:55.447Z,90.6
2018-11-03T12:58:56.358Z,90.4
2018-11-03T12:59:57.459Z,92.3
2018-11-03T13:00:58.247Z,91.7
2018-11-03T13:01:59.028Z,92.4
2018-11-03T13:02:59.798Z,92.2
2018-11-03T13:04:00.954Z,92.4
2018-11-03T13:05:01.770Z,92.6
2018-11-03T13:06:02.515Z,91.0
2018-11-03T13:07:03.290Z,90.5
2018-11-03T13:08:04.071Z,92.8
2018-11-03T13:09:05.643Z,93.7
2018-11-03T13:10:06.769Z,93.5
2018-11-03T13:11:07.482Z,92.1
2018-11-03T13:12:08.402Z,91.5
2018-11-03T13:13:09.461Z,92.0